Campinas, Brazil
Current Conditions -  °F | °C
As of 10:00 PM on Wednesday 26 Nov 2014 (Local Time) from SBKP Reporting Station
Light Rain Light Rain  
Wind Chill: 70°   Ceiling: 7000
Heat Index: 70°   Visibility: 4mi
Dew Point: 68°   Wind: 5mph
Humidity: 94%   Direction: 50°NE
Pressure: NA   Gusts: NA
Location:  22.91°S, 47.08°W
Report Text: SBKP 270000Z 05004KT 7000 -RA FEW030 FEW045TCU OVC070 21/20 Q1013 RETSRA
Loading
Personal Weather Stations






























Interactive Weather Map New forecast layout! Learn more

10-Day Weather Forecast

Advertisements
Track Severe Weather on mobile